Time;durP1;ratioP1;P1;durP2;ratioP2;P2;SDS_P1;SDS_P2;PMS_P1;PMS_P2;Temp;Humidity;BMP_temperature;BMP_pressure;BME280_temperature;BME280_humidity;BME280_pressure;Samples;Min_cycle;Max_cycle;Signal;HPM_P1;HPM_P2
2022/08/16 00:01:57;;;;;;;9.45;6.40;;;;;;;;;;5072989;28;20553;-66
2022/08/16 00:04:22;;;;;;;9.90;7.07;;;;;;;;;;5073114;28;20442;-67
2022/08/16 00:06:48;;;;;;;9.05;7.18;;;;;;;;;;5073009;28;20032;-67
2022/08/16 00:09:14;;;;;;;9.80;7.47;;;;;;;;;;5072939;28;20016;-66
2022/08/16 00:11:41;;;;;;;11.15;7.45;;;;;;;;;;5072641;28;20032;-67
2022/08/16 00:14:11;;;;;;;10.95;7.75;;;;;;;;;;5072489;28;20032;-66
2022/08/16 00:16:37;;;;;;;;;;;;;;;;;;5073192;28;20049;-67
2022/08/16 00:19:03;;;;;;;11.07;7.10;;;;;;;;;;5072810;28;20358;-66
2022/08/16 00:21:29;;;;;;;9.57;7.18;;;;;;;;;;5072661;28;20094;-66
2022/08/16 00:23:56;;;;;;;8.40;6.70;;;;;;;;;;5072443;28;20028;-66
2022/08/16 00:26:22;;;;;;;12.32;6.82;;;;;;;;;;5072485;28;20505;-67
2022/08/16 00:28:48;;;;;;;7.43;6.03;;;;;;;;;;5072227;28;20103;-64
2022/08/16 00:31:13;;;;;;;10.73;7.40;;;;;;;;;;5072562;28;20382;-67
2022/08/16 00:33:39;;;;;;;10.85;7.43;;;;;;;;;;5072596;28;20021;-66
2022/08/16 00:36:06;;;;;;;9.85;7.32;;;;;;;;;;5072283;28;20033;-66
2022/08/16 00:38:32;;;;;;;8.88;6.95;;;;;;;;;;5072290;28;20412;-66
2022/08/16 00:40:58;;;;;;;10.75;6.97;;;;;;;;;;5072095;28;20025;-67
2022/08/16 00:43:28;;;;;;;9.88;7.18;;;;;;;;;;5072024;28;20032;-66
2022/08/16 00:45:56;;;;;;;10.60;7.33;;;;;;;;;;5071936;28;20441;-66
2022/08/16 00:48:21;;;;;;;8.70;6.55;;;;;;;;;;5072100;28;20036;-65
2022/08/16 00:50:47;;;;;;;8.05;6.47;;;;;;;;;;5071926;28;20032;-64
2022/08/16 00:53:15;;;;;;;10.13;6.90;;;;;;;;;;5071892;28;20044;-66
2022/08/16 00:55:47;;;;;;;9.32;6.88;;;;;;;;;;5071950;28;20024;-67
2022/08/16 00:58:15;;;;;;;9.38;6.65;;;;;;;;;;5071794;28;20021;-65
2022/08/16 01:00:41;;;;;;;9.32;6.78;;;;;;;;;;5071868;28;20417;-66
2022/08/16 01:03:10;;;;;;;8.95;6.65;;;;;;;;;;5071975;28;20052;-67
2022/08/16 01:05:36;;;;;;;8.43;6.93;;;;;;;;;;5071868;28;20028;-64
2022/08/16 01:08:03;;;;;;;12.93;6.88;;;;;;;;;;5071675;28;20055;-66
2022/08/16 01:10:31;;;;;;;7.80;6.72;;;;;;;;;;5071648;28;20166;-65
2022/08/16 01:12:59;;;;;;;12.85;6.57;;;;;;;;;;5071491;28;20483;-67
2022/08/16 01:15:25;;;;;;;8.85;6.50;;;;;;;;;;5071585;28;20036;-64
2022/08/16 01:17:52;;;;;;;9.75;7.57;;;;;;;;;;5071504;28;20028;-66
2022/08/16 01:20:21;;;;;;;9.02;7.30;;;;;;;;;;5071570;28;20081;-66
2022/08/16 01:22:56;;;;;;;13.65;7.05;;;;;;;;;;5070259;28;20127;-67
2022/08/16 01:25:27;;;;;;;11.48;7.13;;;;;;;;;;5071192;28;20437;-65
2022/08/16 01:27:55;;;;;;;8.30;7.15;;;;;;;;;;5071324;28;20021;-66
2022/08/16 01:30:26;;;;;;;11.75;6.93;;;;;;;;;;5071512;28;20041;-64
2022/08/16 01:32:54;;;;;;;9.00;6.78;;;;;;;;;;5071582;28;20036;-66
2022/08/16 01:35:34;;;;;;;8.73;7.10;;;;;;;;;;5070275;28;20483;-65
2022/08/16 01:38:22;;;;;;;11.20;7.30;;;;;;;;;;5071303;28;20028;-65
2022/08/16 01:40:50;;;;;;;10.73;7.00;;;;;;;;;;5071135;28;20045;-67
2022/08/16 01:43:16;;;;;;;12.77;7.18;;;;;;;;;;5071390;28;20043;-66
2022/08/16 01:45:42;;;;;;;9.27;7.07;;;;;;;;;;5071417;28;20025;-66
2022/08/16 01:48:09;;;;;;;10.45;6.78;;;;;;;;;;5071441;28;20103;-64
2022/08/16 01:50:35;;;;;;;10.32;7.30;;;;;;;;;;5071199;28;20036;-67
2022/08/16 01:53:01;;;;;;;9.55;6.80;;;;;;;;;;5071106;28;20045;-67
2022/08/16 01:55:26;;;;;;;10.35;7.95;;;;;;;;;;5071033;28;20024;-67
2022/08/16 01:57:52;;;;;;;10.07;7.45;;;;;;;;;;5071030;28;20375;-66
2022/08/16 02:00:18;;;;;;;13.35;7.65;;;;;;;;;;5071151;28;20066;-65
2022/08/16 02:02:44;;;;;;;10.50;7.05;;;;;;;;;;5071032;28;20039;-64
2022/08/16 02:05:12;;;;;;;9.52;6.85;;;;;;;;;;5071158;28;20021;-67
2022/08/16 02:07:38;;;;;;;10.00;6.60;;;;;;;;;;5071095;28;20458;-67
2022/08/16 02:10:06;;;;;;;8.77;7.25;;;;;;;;;;5070752;28;20033;-64
2022/08/16 02:12:32;;;;;;;12.05;6.88;;;;;;;;;;5071006;28;20033;-66
2022/08/16 02:14:57;;;;;;;9.60;7.18;;;;;;;;;;5071147;28;20028;-65
2022/08/16 02:17:23;;;;;;;9.50;6.82;;;;;;;;;;5071001;28;20489;-64
2022/08/16 02:19:50;;;;;;;8.90;7.07;;;;;;;;;;5070993;28;20467;-65
2022/08/16 02:22:19;;;;;;;11.38;7.47;;;;;;;;;;5071176;28;20475;-67
2022/08/16 02:24:45;;;;;;;9.60;6.65;;;;;;;;;;5070727;28;20414;-66
2022/08/16 02:27:10;;;;;;;12.45;7.82;;;;;;;;;;5070918;28;20036;-64
2022/08/16 02:29:37;;;;;;;10.32;7.13;;;;;;;;;;5071170;28;20025;-65
2022/08/16 02:32:04;;;;;;;8.98;7.40;;;;;;;;;;5070826;28;20028;-65
2022/08/16 02:34:30;;;;;;;11.45;7.47;;;;;;;;;;5070818;28;20036;-67
2022/08/16 02:36:55;;;;;;;9.00;7.13;;;;;;;;;;5070842;28;20024;-67
2022/08/16 02:39:21;;;;;;;11.43;7.85;;;;;;;;;;5073839;28;20771;-67
2022/08/16 02:41:49;;;;;;;11.25;7.72;;;;;;;;;;5074185;28;20054;-64
2022/08/16 02:44:15;;;;;;;11.23;8.40;;;;;;;;;;5074434;28;20033;-67
2022/08/16 02:46:42;;;;;;;11.07;8.55;;;;;;;;;;5074400;28;20031;-66
2022/08/16 02:49:09;;;;;;;12.55;9.45;;;;;;;;;;5074359;28;20021;-67
2022/08/16 02:51:35;;;;;;;13.18;9.20;;;;;;;;;;5074147;28;20041;-65
2022/08/16 02:54:01;;;;;;;14.13;9.57;;;;;;;;;;5074018;28;20105;-66
2022/08/16 02:56:28;;;;;;;10.85;8.30;;;;;;;;;;5074328;28;20029;-67
2022/08/16 02:58:54;;;;;;;19.00;10.80;;;;;;;;;;5074120;28;20024;-67
2022/08/16 03:01:24;;;;;;;12.30;9.60;;;;;;;;;;5074234;28;20185;-67
2022/08/16 03:03:50;;;;;;;13.27;9.85;;;;;;;;;;5074224;28;20059;-66
2022/08/16 03:06:19;;;;;;;14.65;10.13;;;;;;;;;;5074002;28;20028;-66
2022/08/16 03:08:45;;;;;;;14.75;9.95;;;;;;;;;;5073839;28;20020;-66
2022/08/16 03:11:12;;;;;;;12.55;9.63;;;;;;;;;;5074088;28;20032;-66
2022/08/16 03:13:38;;;;;;;10.80;9.10;;;;;;;;;;5073973;28;20423;-66
2022/08/16 03:16:04;;;;;;;12.88;9.52;;;;;;;;;;5073852;28;20502;-66
2022/08/16 03:18:30;;;;;;;14.73;9.82;;;;;;;;;;5073971;28;20430;-67
2022/08/16 03:20:56;;;;;;;12.88;10.05;;;;;;;;;;5074057;28;20020;-67
2022/08/16 03:23:22;;;;;;;18.60;11.52;;;;;;;;;;5073523;28;20108;-66
2022/08/16 03:25:47;;;;;;;14.27;10.52;;;;;;;;;;5073785;28;20029;-66
2022/08/16 03:28:13;;;;;;;13.10;11.13;;;;;;;;;;5073793;28;20506;-66
2022/08/16 03:30:39;;;;;;;12.93;10.30;;;;;;;;;;5073645;28;20033;-64
2022/08/16 03:33:05;;;;;;;19.23;11.48;;;;;;;;;;5073660;28;20065;-66
2022/08/16 03:35:32;;;;;;;26.83;11.57;;;;;;;;;;5073537;28;20025;-67
2022/08/16 03:38:00;;;;;;;24.52;12.02;;;;;;;;;;5073093;28;20475;-66
2022/08/16 03:40:27;;;;;;;38.60;16.10;;;;;;;;;;5073471;28;20025;-66
2022/08/16 03:42:53;;;;;;;17.85;12.05;;;;;;;;;;5073300;28;20559;-66
2022/08/16 03:45:19;;;;;;;16.08;11.07;;;;;;;;;;5073506;28;20028;-66
2022/08/16 03:47:46;;;;;;;15.32;10.23;;;;;;;;;;5073379;28;20055;-67
2022/08/16 03:50:13;;;;;;;15.65;10.40;;;;;;;;;;5073037;28;20025;-66
2022/08/16 03:52:40;;;;;;;20.23;11.68;;;;;;;;;;5072867;28;20376;-67
2022/08/16 03:55:08;;;;;;;15.93;10.55;;;;;;;;;;5073130;28;20025;-67
2022/08/16 03:57:34;;;;;;;13.75;10.43;;;;;;;;;;5072938;28;20039;-67
2022/08/16 04:00:00;;;;;;;14.95;9.90;;;;;;;;;;5073012;28;20031;-67
2022/08/16 04:02:27;;;;;;;17.30;10.63;;;;;;;;;;5073046;28;20471;-67
2022/08/16 04:04:53;;;;;;;14.73;10.65;;;;;;;;;;5073077;28;20119;-66
2022/08/16 04:07:18;;;;;;;14.93;10.38;;;;;;;;;;5072819;28;20449;-64
2022/08/16 04:09:44;;;;;;;17.15;10.88;;;;;;;;;;5072780;28;20040;-67
2022/08/16 04:12:11;;;;;;;14.75;10.02;;;;;;;;;;5071222;28;20024;-67
2022/08/16 04:14:37;;;;;;;18.67;10.65;;;;;;;;;;5072812;28;20059;-67
2022/08/16 04:17:04;;;;;;;15.48;10.93;;;;;;;;;;5072744;28;20028;-66
2022/08/16 04:19:29;;;;;;;17.10;11.00;;;;;;;;;;5072608;28;20056;-66
2022/08/16 04:21:55;;;;;;;16.45;10.45;;;;;;;;;;5072615;28;20052;-67
2022/08/16 04:24:21;;;;;;;17.45;10.80;;;;;;;;;;5072708;28;20028;-66
2022/08/16 04:26:47;;;;;;;16.30;11.52;;;;;;;;;;5072547;28;20032;-66
2022/08/16 04:29:16;;;;;;;15.88;11.15;;;;;;;;;;5072485;28;20024;-66
2022/08/16 04:31:42;;;;;;;16.35;10.52;;;;;;;;;;5072332;28;20063;-67
2022/08/16 04:34:07;;;;;;;15.00;11.18;;;;;;;;;;5072253;28;20052;-67
2022/08/16 04:36:34;;;;;;;14.63;11.32;;;;;;;;;;5072513;28;20142;-67
2022/08/16 04:39:00;;;;;;;17.00;11.32;;;;;;;;;;5072237;28;20443;-65
2022/08/16 04:41:28;;;;;;;18.52;11.98;;;;;;;;;;5072199;28;20103;-67
2022/08/16 04:43:53;;;;;;;16.67;11.07;;;;;;;;;;5072172;28;20028;-66
2022/08/16 04:46:19;;;;;;;17.65;12.48;;;;;;;;;;5072128;28;20021;-66
2022/08/16 04:48:44;;;;;;;16.98;12.50;;;;;;;;;;5072022;28;20025;-67
2022/08/16 04:51:10;;;;;;;17.40;12.45;;;;;;;;;;5071688;28;20486;-66
2022/08/16 04:53:37;;;;;;;14.35;12.43;;;;;;;;;;5072104;28;20055;-65
2022/08/16 04:56:03;;;;;;;18.38;13.65;;;;;;;;;;5071858;28;20486;-67
2022/08/16 04:58:30;;;;;;;22.50;12.70;;;;;;;;;;5072037;28;20482;-67
2022/08/16 05:00:56;;;;;;;15.75;12.73;;;;;;;;;;5071055;28;20036;-64
2022/08/16 05:03:21;;;;;;;16.85;12.63;;;;;;;;;;5071713;28;20024;-67
2022/08/16 05:05:47;;;;;;;17.95;12.20;;;;;;;;;;5071695;28;20024;-67
2022/08/16 05:08:13;;;;;;;14.98;12.20;;;;;;;;;;5071748;28;20035;-66
2022/08/16 05:10:39;;;;;;;18.13;11.80;;;;;;;;;;5071792;28;20037;-67
2022/08/16 05:13:06;;;;;;;15.07;11.82;;;;;;;;;;5071740;28;20050;-66
2022/08/16 05:15:33;;;;;;;23.77;13.13;;;;;;;;;;5070487;28;20115;-66
2022/08/16 05:17:58;;;;;;;16.20;12.13;;;;;;;;;;5071407;28;20025;-67
2022/08/16 05:20:24;;;;;;;26.85;16.35;;;;;;;;;;5071843;28;20078;-64
2022/08/16 05:22:49;;;;;;;17.33;13.32;;;;;;;;;;5071401;28;20024;-67
2022/08/16 05:25:15;;;;;;;17.83;12.02;;;;;;;;;;5071528;28;20487;-66
2022/08/16 05:27:42;;;;;;;17.77;13.68;;;;;;;;;;5071435;28;20471;-66
2022/08/16 05:30:12;;;;;;;16.02;11.40;;;;;;;;;;5071308;28;20082;-66
2022/08/16 05:32:38;;;;;;;16.85;11.48;;;;;;;;;;5071160;28;20385;-67
2022/08/16 05:35:06;;;;;;;17.08;11.93;;;;;;;;;;5071660;28;20047;-66
2022/08/16 05:37:33;;;;;;;21.60;12.38;;;;;;;;;;5071307;28;20021;-65
2022/08/16 05:39:59;;;;;;;17.83;11.85;;;;;;;;;;5071256;28;20071;-66
2022/08/16 05:42:24;;;;;;;21.13;12.27;;;;;;;;;;5071214;28;20052;-67
2022/08/16 05:44:50;;;;;;;18.58;12.02;;;;;;;;;;5070155;28;20047;-65
2022/08/16 05:47:15;;;;;;;15.90;10.85;;;;;;;;;;5071115;28;20032;-67
2022/08/16 05:49:41;;;;;;;18.17;11.60;;;;;;;;;;5071195;28;20032;-66
2022/08/16 05:52:08;;;;;;;20.60;10.30;;;;;;;;;;5070872;28;20105;-67
2022/08/16 05:54:34;;;;;;;12.93;10.40;;;;;;;;;;5071196;28;20032;-67
2022/08/16 05:56:59;;;;;;;16.02;10.32;;;;;;;;;;5071242;28;20070;-67
2022/08/16 05:59:25;;;;;;;13.18;9.20;;;;;;;;;;5071110;28;20073;-66
2022/08/16 06:01:51;;;;;;;16.92;10.25;;;;;;;;;;5070661;28;20020;-66
2022/08/16 06:04:17;;;;;;;16.35;10.07;;;;;;;;;;5069836;28;20036;-67
2022/08/16 06:06:44;;;;;;;17.65;10.93;;;;;;;;;;5070989;28;20428;-65
2022/08/16 06:09:11;;;;;;;10.38;8.88;;;;;;;;;;5071106;28;20103;-66
2022/08/16 06:11:37;;;;;;;12.15;10.00;;;;;;;;;;5071699;28;20032;-64
2022/08/16 06:14:03;;;;;;;13.65;9.57;;;;;;;;;;5075082;28;20031;-66
2022/08/16 06:16:29;;;;;;;13.43;9.73;;;;;;;;;;5074887;28;20163;-66
2022/08/16 06:18:55;;;;;;;15.48;9.60;;;;;;;;;;5075016;28;20491;-65
2022/08/16 06:21:20;;;;;;;15.05;9.95;;;;;;;;;;5074944;28;20105;-66
2022/08/16 06:23:46;;;;;;;12.13;8.50;;;;;;;;;;5074914;28;20487;-65
2022/08/16 06:26:11;;;;;;;14.73;9.20;;;;;;;;;;5074787;28;20028;-65
2022/08/16 06:28:37;;;;;;;12.10;8.93;;;;;;;;;;5074837;28;20378;-66
2022/08/16 06:31:04;;;;;;;13.38;9.13;;;;;;;;;;5074583;28;20253;-65
2022/08/16 06:33:30;;;;;;;15.30;8.23;;;;;;;;;;5074824;28;20024;-66
2022/08/16 06:35:56;;;;;;;12.68;8.40;;;;;;;;;;5074518;28;20556;-65
2022/08/16 06:38:22;;;;;;;14.80;9.10;;;;;;;;;;5074627;28;20033;-65
2022/08/16 06:40:48;;;;;;;12.80;8.70;;;;;;;;;;5073070;28;20087;-66
2022/08/16 06:43:14;;;;;;;12.88;8.30;;;;;;;;;;5073391;28;20386;-66
2022/08/16 06:45:41;;;;;;;20.85;9.18;;;;;;;;;;5074169;28;20028;-66
2022/08/16 06:48:08;;;;;;;10.50;8.45;;;;;;;;;;5074557;28;20029;-65
2022/08/16 06:50:34;;;;;;;15.23;9.10;;;;;;;;;;5074405;28;20029;-66
2022/08/16 06:53:00;;;;;;;14.20;9.30;;;;;;;;;;5074318;28;20047;-65
2022/08/16 06:55:25;;;;;;;12.32;7.75;;;;;;;;;;5074250;28;20379;-65
2022/08/16 06:57:52;;;;;;;10.95;8.10;;;;;;;;;;5074155;28;20031;-65
2022/08/16 07:00:17;;;;;;;13.07;8.55;;;;;;;;;;5074076;28;20031;-67
2022/08/16 07:02:43;;;;;;;9.55;7.35;;;;;;;;;;5074199;28;20017;-65
2022/08/16 07:05:11;;;;;;;12.40;7.20;;;;;;;;;;5074079;28;20050;-63
2022/08/16 07:07:38;;;;;;;16.33;8.75;;;;;;;;;;5071271;28;20475;-66
2022/08/16 07:10:05;;;;;;;15.77;7.95;;;;;;;;;;5074272;28;20083;-65
2022/08/16 07:12:31;;;;;;;14.80;7.82;;;;;;;;;;5074968;28;20032;-64
2022/08/16 07:14:56;;;;;;;12.10;7.70;;;;;;;;;;5074661;28;20031;-66
2022/08/16 07:17:23;;;;;;;16.27;7.43;;;;;;;;;;5074804;28;20017;-66
2022/08/16 07:19:49;;;;;;;10.40;7.15;;;;;;;;;;5074882;28;20043;-66
2022/08/16 07:22:16;;;;;;;9.55;7.47;;;;;;;;;;5074772;28;20451;-65
2022/08/16 07:24:43;;;;;;;20.80;6.97;;;;;;;;;;5074160;28;20036;-65
2022/08/16 07:27:09;;;;;;;10.85;6.30;;;;;;;;;;5074895;28;20024;-66
2022/08/16 07:29:35;;;;;;;9.10;6.07;;;;;;;;;;5074750;28;20029;-65
2022/08/16 07:32:01;;;;;;;7.85;6.25;;;;;;;;;;5075010;28;20032;-66
2022/08/16 07:34:28;;;;;;;10.85;6.50;;;;;;;;;;5075188;28;20021;-66
2022/08/16 07:36:53;;;;;;;13.30;6.32;;;;;;;;;;5066681;28;20056;-66
2022/08/16 07:39:19;;;;;;;10.63;5.93;;;;;;;;;;5063347;28;20485;-66
2022/08/16 07:41:44;;;;;;;10.23;6.20;;;;;;;;;;5074482;28;20541;-66
2022/08/16 07:44:10;;;;;;;6.95;5.80;;;;;;;;;;5074348;28;20024;-66
2022/08/16 07:46:36;;;;;;;11.23;5.63;;;;;;;;;;5074492;28;20025;-64
2022/08/16 07:49:03;;;;;;;11.15;5.90;;;;;;;;;;5074275;28;20052;-65
2022/08/16 07:51:33;;;;;;;11.00;6.00;;;;;;;;;;5074294;28;20079;-66
2022/08/16 07:54:01;;;;;;;11.80;6.45;;;;;;;;;;5074119;28;20438;-64
2022/08/16 07:56:30;;;;;;;10.55;5.55;;;;;;;;;;5074102;28;20483;-66
2022/08/16 07:58:56;;;;;;;9.20;5.03;;;;;;;;;;5073862;28;20035;-65
2022/08/16 08:01:22;;;;;;;9.95;5.20;;;;;;;;;;5073987;28;20051;-65
2022/08/16 08:03:50;;;;;;;5.75;4.30;;;;;;;;;;5074373;28;20032;-66
2022/08/16 08:06:21;;;;;;;8.82;4.68;;;;;;;;;;5073699;28;20107;-66
2022/08/16 08:08:47;;;;;;;7.50;4.40;;;;;;;;;;5073451;28;20028;-66
2022/08/16 08:11:12;;;;;;;7.18;4.60;;;;;;;;;;5073681;28;20055;-65
2022/08/16 08:13:38;;;;;;;8.50;4.70;;;;;;;;;;5073679;28;20063;-66
2022/08/16 08:16:04;;;;;;;9.07;4.30;;;;;;;;;;5073915;28;20017;-66
2022/08/16 08:18:29;;;;;;;7.88;4.38;;;;;;;;;;5073862;28;20020;-67
2022/08/16 08:20:56;;;;;;;7.25;4.32;;;;;;;;;;5073502;28;20613;-64
2022/08/16 08:23:21;;;;;;;5.47;3.97;;;;;;;;;;5073520;28;20043;-66
2022/08/16 08:25:47;;;;;;;6.78;4.63;;;;;;;;;;5073669;28;20032;-66
2022/08/16 08:28:14;;;;;;;8.40;4.32;;;;;;;;;;5073406;28;20029;-63
2022/08/16 08:30:40;;;;;;;4.65;3.70;;;;;;;;;;5073016;28;20044;-66
2022/08/16 08:33:06;;;;;;;5.40;3.60;;;;;;;;;;5073392;28;20029;-66
2022/08/16 08:35:33;;;;;;;6.20;4.32;;;;;;;;;;5073433;28;20139;-65
2022/08/16 08:37:59;;;;;;;9.63;4.03;;;;;;;;;;5073253;28;20077;-64
2022/08/16 08:40:27;;;;;;;9.10;4.53;;;;;;;;;;5073096;28;20421;-65
2022/08/16 08:42:56;;;;;;;13.77;4.90;;;;;;;;;;5072971;28;20111;-66
2022/08/16 08:45:22;;;;;;;6.38;4.30;;;;;;;;;;5073032;28;20555;-66
2022/08/16 08:47:47;;;;;;;6.38;4.55;;;;;;;;;;5073207;28;20021;-67
2022/08/16 08:50:15;;;;;;;9.82;4.90;;;;;;;;;;5073054;28;20020;-66
2022/08/16 08:52:42;;;;;;;5.47;4.10;;;;;;;;;;5072779;28;20502;-66
2022/08/16 08:55:10;;;;;;;10.52;4.30;;;;;;;;;;5072744;28;20067;-67
2022/08/16 08:57:36;;;;;;;13.10;4.90;;;;;;;;;;5072977;28;20040;-64
2022/08/16 09:00:02;;;;;;;4.55;3.92;;;;;;;;;;5072915;28;20262;-65
2022/08/16 09:02:28;;;;;;;8.93;4.18;;;;;;;;;;5073008;28;20024;-66
2022/08/16 09:04:53;;;;;;;9.90;4.18;;;;;;;;;;5072873;28;20023;-65
2022/08/16 09:07:20;;;;;;;6.45;4.55;;;;;;;;;;5072749;28;20403;-67
2022/08/16 09:09:46;;;;;;;6.55;4.57;;;;;;;;;;5072419;28;20066;-67
2022/08/16 09:12:12;;;;;;;9.35;4.32;;;;;;;;;;5072811;28;20028;-65
2022/08/16 09:14:38;;;;;;;6.78;4.80;;;;;;;;;;5072773;28;20028;-67
2022/08/16 09:17:05;;;;;;;7.78;5.03;;;;;;;;;;5072525;28;20486;-65
2022/08/16 09:19:35;;;;;;;8.90;4.70;;;;;;;;;;5072594;28;20039;-65
2022/08/16 09:22:03;;;;;;;7.65;4.22;;;;;;;;;;5072589;28;20090;-66
2022/08/16 09:24:29;;;;;;;9.70;4.72;;;;;;;;;;5072491;28;20028;-66
2022/08/16 09:26:55;;;;;;;6.72;4.13;;;;;;;;;;5072548;28;20387;-65
2022/08/16 09:29:20;;;;;;;7.85;4.00;;;;;;;;;;5072316;28;20039;-66
2022/08/16 09:31:46;;;;;;;10.35;3.63;;;;;;;;;;5072545;28;20024;-64
2022/08/16 09:34:11;;;;;;;5.93;3.70;;;;;;;;;;5072282;28;20033;-66
2022/08/16 09:36:37;;;;;;;4.35;3.83;;;;;;;;;;5072364;28;20112;-67
2022/08/16 09:39:03;;;;;;;16.30;3.95;;;;;;;;;;5072153;28;20468;-66
2022/08/16 09:41:30;;;;;;;9.55;3.90;;;;;;;;;;5072189;28;20028;-66
2022/08/16 09:43:56;;;;;;;6.95;4.03;;;;;;;;;;5072371;28;20032;-66
2022/08/16 09:46:22;;;;;;;8.90;4.22;;;;;;;;;;5071917;28;20021;-67
2022/08/16 09:48:48;;;;;;;8.15;4.28;;;;;;;;;;5072225;28;20020;-67
2022/08/16 09:51:14;;;;;;;5.95;4.40;;;;;;;;;;5071871;28;20036;-68
2022/08/16 09:53:40;;;;;;;6.95;3.90;;;;;;;;;;5072294;28;20375;-67
2022/08/16 09:56:24;;;;;;;9.70;4.50;;;;;;;;;;5072246;28;20063;-67
2022/08/16 09:58:49;;;;;;;8.23;4.32;;;;;;;;;;5070913;28;20052;-67
2022/08/16 10:01:15;;;;;;;8.25;3.83;;;;;;;;;;5056074;28;20515;-67
2022/08/16 10:03:40;;;;;;;7.60;3.70;;;;;;;;;;5070885;28;20028;-67
2022/08/16 10:06:06;;;;;;;7.15;3.60;;;;;;;;;;5071665;28;20128;-67
2022/08/16 10:08:32;;;;;;;9.60;3.78;;;;;;;;;;5070611;28;20467;-67
2022/08/16 10:13:43;;;;;;;7.03;3.97;;;;;;;;;;5066557;28;20483;-67
2022/08/16 10:16:12;;;;;;;7.03;3.90;;;;;;;;;;5050457;28;20502;-67
2022/08/16 10:18:40;;;;;;;10.00;4.32;;;;;;;;;;5052024;28;20061;-67
2022/08/16 10:21:06;;;;;;;12.32;4.03;;;;;;;;;;5051935;28;20055;-67
2022/08/16 10:23:31;;;;;;;10.90;4.43;;;;;;;;;;5051420;28;20041;-66
2022/08/16 10:25:57;;;;;;;9.15;4.35;;;;;;;;;;5051869;28;20107;-66
2022/08/16 10:28:25;;;;;;;8.30;4.13;;;;;;;;;;5051893;28;20028;-66
2022/08/16 10:30:50;;;;;;;7.50;4.10;;;;;;;;;;5051223;28;20029;-65
2022/08/16 10:33:16;;;;;;;8.32;4.43;;;;;;;;;;5051661;28;20067;-66
2022/08/16 10:35:43;;;;;;;7.07;4.53;;;;;;;;;;5051477;28;20025;-65
2022/08/16 10:38:11;;;;;;;7.38;4.30;;;;;;;;;;5051664;28;20450;-65
2022/08/16 10:40:38;;;;;;;9.40;4.50;;;;;;;;;;5051791;28;20044;-66
2022/08/16 10:43:04;;;;;;;6.70;4.15;;;;;;;;;;5051461;28;20033;-66
2022/08/16 10:45:31;;;;;;;7.00;3.72;;;;;;;;;;5051550;28;20029;-64
2022/08/16 10:47:58;;;;;;;6.20;4.20;;;;;;;;;;5051721;28;20053;-65
2022/08/16 10:50:24;;;;;;;6.25;4.32;;;;;;;;;;5051634;28;20055;-66
2022/08/16 10:52:50;;;;;;;7.82;4.30;;;;;;;;;;5051421;28;20037;-65
2022/08/16 10:55:15;;;;;;;6.18;4.68;;;;;;;;;;5051573;28;20028;-65
2022/08/16 10:57:41;;;;;;;8.50;4.88;;;;;;;;;;5051835;28;20467;-66
2022/08/16 11:00:11;;;;;;;7.43;4.43;;;;;;;;;;5054202;28;20029;-63
2022/08/16 11:02:38;;;;;;;13.40;4.63;;;;;;;;;;5055265;28;20480;-65
2022/08/16 11:05:11;;;;;;;8.40;4.63;;;;;;;;;;5055040;28;20559;-64
2022/08/16 11:07:42;;;;;;;11.30;5.13;;;;;;;;;;5054804;28;20052;-65
2022/08/16 11:10:09;;;;;;;7.90;4.70;;;;;;;;;;5055083;28;20438;-66
2022/08/16 11:12:35;;;;;;;6.20;4.38;;;;;;;;;;5055055;28;20456;-66
2022/08/16 11:15:00;;;;;;;10.02;4.65;;;;;;;;;;5054850;28;20128;-66
2022/08/16 11:17:26;;;;;;;8.18;4.55;;;;;;;;;;5054736;28;20048;-65
2022/08/16 11:19:51;;;;;;;6.80;3.97;;;;;;;;;;5054794;28;20025;-64
2022/08/16 11:22:18;;;;;;;8.27;4.15;;;;;;;;;;5054685;28;20029;-65
2022/08/16 11:24:45;;;;;;;6.78;4.00;;;;;;;;;;5054695;28;20017;-66
2022/08/16 11:27:19;;;;;;;6.38;4.47;;;;;;;;;;5054749;28;20021;-65
2022/08/16 11:29:45;;;;;;;5.88;4.22;;;;;;;;;;5054874;28;20459;-66
2022/08/16 11:32:11;;;;;;;10.45;4.78;;;;;;;;;;5053567;28;20116;-66
2022/08/16 11:34:36;;;;;;;5.97;4.28;;;;;;;;;;5054492;28;20070;-65
2022/08/16 11:37:03;;;;;;;8.85;4.15;;;;;;;;;;5054526;28;20070;-64
2022/08/16 11:39:29;;;;;;;5.03;4.43;;;;;;;;;;5053206;28;20115;-64
2022/08/16 11:41:56;;;;;;;6.78;4.38;;;;;;;;;;5054278;28;20025;-65
2022/08/16 11:44:22;;;;;;;6.85;4.78;;;;;;;;;;5054387;28;20036;-64
2022/08/16 11:46:48;;;;;;;10.88;4.40;;;;;;;;;;5054311;28;20013;-66
2022/08/16 11:49:14;;;;;;;7.25;3.88;;;;;;;;;;5053878;28;20610;-65
2022/08/16 11:51:43;;;;;;;6.13;4.00;;;;;;;;;;5054137;28;20045;-63
2022/08/16 11:54:10;;;;;;;4.80;3.92;;;;;;;;;;5054258;28;20029;-66
2022/08/16 11:56:36;;;;;;;10.15;4.03;;;;;;;;;;5054274;28;20449;-66
2022/08/16 11:59:02;;;;;;;12.45;4.57;;;;;;;;;;5054060;28;20028;-66
2022/08/16 12:01:28;;;;;;;5.43;4.00;;;;;;;;;;5054018;28;20039;-65
2022/08/16 12:03:54;;;;;;;7.57;4.57;;;;;;;;;;5053884;28;20446;-66
2022/08/16 12:06:20;;;;;;;11.15;5.13;;;;;;;;;;5053808;28;20540;-66
2022/08/16 12:08:46;;;;;;;9.68;4.53;;;;;;;;;;5053870;28;20036;-66
2022/08/16 12:11:13;;;;;;;6.40;4.10;;;;;;;;;;5053155;28;20033;-66
2022/08/16 12:13:41;;;;;;;7.18;4.45;;;;;;;;;;5057215;28;20090;-66
2022/08/16 12:16:08;;;;;;;9.32;4.40;;;;;;;;;;5056496;28;20028;-66
2022/08/16 12:18:35;;;;;;;8.13;4.80;;;;;;;;;;5073295;28;20394;-66
2022/08/16 12:21:01;;;;;;;11.05;5.13;;;;;;;;;;5073626;28;20024;-66
2022/08/16 12:23:26;;;;;;;6.53;4.53;;;;;;;;;;5073465;28;20024;-66
2022/08/16 12:25:52;;;;;;;7.53;4.53;;;;;;;;;;5073569;28;20037;-64
2022/08/16 12:28:18;;;;;;;7.13;4.95;;;;;;;;;;5073666;28;20016;-66
2022/08/16 12:30:45;;;;;;;6.72;4.40;;;;;;;;;;5073289;28;20020;-66
2022/08/16 12:33:16;;;;;;;6.47;5.35;;;;;;;;;;5073091;28;20028;-66
2022/08/16 12:35:45;;;;;;;7.65;5.55;;;;;;;;;;5073206;28;20035;-65
2022/08/16 12:38:11;;;;;;;8.50;5.30;;;;;;;;;;5073374;28;20104;-66
2022/08/16 12:40:40;;;;;;;8.80;5.30;;;;;;;;;;5073001;28;20037;-66
2022/08/16 12:43:08;;;;;;;9.03;5.20;;;;;;;;;;5073091;28;20029;-64
2022/08/16 12:45:37;;;;;;;8.80;5.63;;;;;;;;;;5073177;28;20445;-66
2022/08/16 12:50:50;;;;;;;8.27;4.75;;;;;;;;;;5073391;28;20042;-66
2022/08/16 12:53:19;;;;;;;8.60;5.60;;;;;;;;;;5073040;28;20072;-64
2022/08/16 12:55:45;;;;;;;7.75;5.47;;;;;;;;;;5073054;28;20483;-65
2022/08/16 12:58:12;;;;;;;9.93;5.10;;;;;;;;;;5072995;28;20079;-66
2022/08/16 13:00:40;;;;;;;10.57;4.85;;;;;;;;;;5072888;28;20032;-65
2022/08/16 13:03:08;;;;;;;10.30;4.95;;;;;;;;;;5072727;28;20032;-66
2022/08/16 13:05:39;;;;;;;6.72;4.90;;;;;;;;;;5072792;28;20025;-65
2022/08/16 13:08:06;;;;;;;13.57;5.28;;;;;;;;;;5072912;28;20052;-66
2022/08/16 13:10:32;;;;;;;5.57;4.45;;;;;;;;;;5072731;28;20032;-66
2022/08/16 13:12:58;;;;;;;6.95;4.95;;;;;;;;;;5072667;28;20475;-66
2022/08/16 13:15:25;;;;;;;7.30;4.80;;;;;;;;;;5072870;28;20058;-66
2022/08/16 13:17:51;;;;;;;7.13;5.10;;;;;;;;;;5070993;28;20033;-66
2022/08/16 13:20:20;;;;;;;7.18;5.57;;;;;;;;;;5072818;28;20036;-66
2022/08/16 13:23:08;;;;;;;7.10;5.05;;;;;;;;;;5072005;28;20025;-66
2022/08/16 13:25:35;;;;;;;7.45;6.10;;;;;;;;;;5072848;28;20029;-63
2022/08/16 13:28:01;;;;;;;8.27;5.45;;;;;;;;;;5072769;28;20033;-66
2022/08/16 13:30:29;;;;;;;8.35;5.20;;;;;;;;;;5072147;28;20032;-65
2022/08/16 13:32:54;;;;;;;7.32;5.10;;;;;;;;;;5072513;28;20028;-64
2022/08/16 13:35:22;;;;;;;5.88;5.13;;;;;;;;;;5065184;28;20032;-65
2022/08/16 13:37:47;;;;;;;5.57;4.60;;;;;;;;;;5052503;28;20035;-64
2022/08/16 13:40:13;;;;;;;6.50;5.32;;;;;;;;;;5052362;28;20107;-65
2022/08/16 13:42:39;;;;;;;7.35;4.53;;;;;;;;;;5068360;28;20030;-65
2022/08/16 13:45:11;;;;;;;7.38;4.93;;;;;;;;;;5071857;28;20021;-65
2022/08/16 13:47:38;;;;;;;6.45;5.13;;;;;;;;;;5072384;28;20077;-66
2022/08/16 13:50:05;;;;;;;8.27;4.60;;;;;;;;;;5072100;28;20032;-65
2022/08/16 13:52:33;;;;;;;5.95;4.55;;;;;;;;;;5072086;28;20139;-65
2022/08/16 13:54:58;;;;;;;7.95;4.72;;;;;;;;;;5072068;28;20062;-65
2022/08/16 13:57:24;;;;;;;6.50;5.32;;;;;;;;;;5072106;28;20458;-65
2022/08/16 13:59:49;;;;;;;5.82;5.22;;;;;;;;;;5072106;28;20050;-66
2022/08/16 14:02:15;;;;;;;8.40;5.53;;;;;;;;;;5072155;28;20025;-64
2022/08/16 14:04:41;;;;;;;6.47;5.70;;;;;;;;;;5072092;28;20035;-65
2022/08/16 14:07:09;;;;;;;6.72;5.40;;;;;;;;;;5071991;28;20048;-66
2022/08/16 14:09:36;;;;;;;9.23;5.63;;;;;;;;;;5071747;28;20035;-66
2022/08/16 14:12:04;;;;;;;10.98;5.63;;;;;;;;;;5071915;28;20037;-66
2022/08/16 14:14:30;;;;;;;11.48;5.65;;;;;;;;;;5071830;28;20029;-66
2022/08/16 14:16:57;;;;;;;7.95;5.72;;;;;;;;;;5072077;28;20025;-64
2022/08/16 14:19:22;;;;;;;12.23;6.20;;;;;;;;;;5071718;28;20040;-64
2022/08/16 14:21:48;;;;;;;8.65;5.47;;;;;;;;;;5071982;28;20028;-65
2022/08/16 14:24:14;;;;;;;8.05;4.93;;;;;;;;;;5072015;28;20028;-66
2022/08/16 14:26:41;;;;;;;10.40;5.25;;;;;;;;;;5071743;28;20378;-66
2022/08/16 14:29:07;;;;;;;8.50;6.68;;;;;;;;;;5070473;28;20049;-66
2022/08/16 14:31:33;;;;;;;8.25;4.70;;;;;;;;;;5071692;28;20033;-65
2022/08/16 14:33:59;;;;;;;8.23;4.85;;;;;;;;;;5074474;28;20032;-67
2022/08/16 14:36:25;;;;;;;5.57;4.30;;;;;;;;;;5075722;28;20475;-66